createdAt,value
2022-08-26T00:01:13.446Z,22.63
2022-08-26T00:04:35.445Z,22.59
2022-08-26T00:07:56.490Z,22.56
2022-08-26T00:11:26.591Z,22.52
2022-08-26T00:14:47.456Z,22.49
2022-08-26T00:18:21.913Z,22.44
2022-08-26T00:21:43.442Z,22.45
2022-08-26T00:25:04.455Z,22.48
2022-08-26T00:28:25.433Z,22.49
2022-08-26T00:31:46.482Z,22.51
2022-08-26T00:35:07.441Z,22.48
2022-08-26T00:38:29.454Z,22.48
2022-08-26T00:41:53.435Z,22.50
2022-08-26T00:45:15.457Z,22.54
2022-08-26T00:48:39.435Z,22.57
2022-08-26T00:52:09.830Z,22.60
2022-08-26T00:55:43.474Z,22.64
2022-08-26T00:59:04.449Z,22.64
2022-08-26T01:02:25.505Z,22.62
2022-08-26T01:05:46.476Z,22.60
2022-08-26T01:09:07.462Z,22.57
2022-08-26T01:12:28.463Z,22.48
2022-08-26T01:15:56.586Z,22.41
2022-08-26T01:19:31.470Z,22.33
2022-08-26T01:23:10.479Z,22.27
2022-08-26T01:26:36.464Z,22.22
2022-08-26T01:30:00.483Z,22.17
2022-08-26T01:33:26.473Z,22.09
2022-08-26T01:36:51.332Z,22.02
2022-08-26T01:40:12.506Z,21.97
2022-08-26T01:43:40.470Z,21.92
2022-08-26T01:47:05.149Z,21.91
2022-08-26T01:50:32.469Z,21.86
2022-08-26T01:53:54.457Z,21.84
2022-08-26T01:57:16.483Z,21.80
2022-08-26T02:00:39.485Z,21.77
2022-08-26T02:04:33.553Z,21.75
2022-08-26T02:07:54.499Z,21.73
2022-08-26T02:11:15.493Z,21.69
2022-08-26T02:14:44.017Z,21.67
2022-08-26T02:18:05.478Z,21.66
2022-08-26T02:21:26.482Z,21.68
2022-08-26T02:25:01.486Z,21.69
2022-08-26T02:28:26.705Z,21.70
2022-08-26T02:31:47.507Z,21.74
2022-08-26T02:35:09.496Z,21.79
2022-08-26T02:38:30.505Z,21.81
2022-08-26T02:41:51.487Z,21.87
2022-08-26T02:45:12.508Z,21.93
2022-08-26T02:48:34.488Z,21.99
2022-08-26T02:51:57.482Z,22.05
2022-08-26T02:55:19.499Z,22.14
2022-08-26T02:58:40.488Z,22.22
2022-08-26T03:02:02.576Z,22.33
2022-08-26T03:05:24.469Z,22.46
2022-08-26T03:08:45.510Z,22.58
2022-08-26T03:12:06.502Z,22.68
2022-08-26T03:15:31.538Z,22.75
2022-08-26T03:18:54.519Z,22.84
2022-08-26T03:22:15.543Z,22.93
2022-08-26T03:25:37.552Z,23.00
2022-08-26T03:29:16.610Z,23.05
2022-08-26T03:32:37.520Z,23.11
2022-08-26T03:35:59.500Z,23.12
2022-08-26T03:39:20.513Z,23.17
2022-08-26T03:42:44.455Z,23.20
2022-08-26T03:46:06.572Z,23.28
2022-08-26T03:49:29.016Z,23.34
2022-08-26T03:52:49.523Z,23.40
2022-08-26T03:56:10.501Z,23.47
2022-08-26T03:59:31.523Z,23.55
2022-08-26T04:02:53.368Z,23.65
2022-08-26T04:06:14.520Z,23.74
2022-08-26T04:09:37.516Z,23.83
2022-08-26T04:12:58.815Z,23.91
2022-08-26T04:16:19.538Z,24.01
2022-08-26T04:19:40.532Z,24.08
2022-08-26T04:23:01.577Z,24.15
2022-08-26T04:26:22.521Z,24.19
2022-08-26T04:29:45.522Z,24.21
2022-08-26T04:33:13.175Z,24.22
2022-08-26T04:36:34.513Z,24.22
2022-08-26T04:39:56.572Z,24.23
2022-08-26T04:43:18.505Z,24.30
2022-08-26T04:46:39.910Z,24.39
2022-08-26T04:50:08.541Z,24.53
2022-08-26T04:53:37.585Z,24.63
2022-08-26T04:57:00.551Z,24.73
2022-08-26T05:00:23.528Z,24.86
2022-08-26T05:03:46.585Z,24.96
2022-08-26T05:07:07.543Z,25.06
2022-08-26T05:10:28.575Z,25.15
2022-08-26T05:13:49.539Z,25.28
2022-08-26T05:17:10.551Z,25.39
2022-08-26T05:20:35.541Z,25.51
2022-08-26T05:23:57.558Z,25.62
2022-08-26T05:27:18.534Z,25.72
2022-08-26T05:30:39.546Z,25.84
2022-08-26T05:34:00.546Z,25.96
2022-08-26T05:37:25.581Z,26.08
2022-08-26T05:40:53.112Z,26.21
2022-08-26T05:44:14.560Z,26.32
2022-08-26T05:47:35.531Z,26.42
2022-08-26T05:51:02.565Z,26.52
2022-08-26T05:54:23.559Z,26.66
2022-08-26T05:57:44.566Z,26.74
2022-08-26T06:01:29.642Z,26.91
2022-08-26T06:04:50.556Z,27.04
2022-08-26T06:08:20.572Z,27.16
2022-08-26T06:11:43.555Z,27.27
2022-08-26T06:15:04.565Z,27.40
2022-08-26T06:18:26.578Z,27.52
2022-08-26T06:21:54.184Z,27.63
2022-08-26T06:25:33.551Z,27.70
2022-08-26T06:28:54.562Z,27.78
2022-08-26T06:32:16.558Z,27.85
2022-08-26T06:35:37.573Z,27.94
2022-08-26T06:38:59.564Z,28.03
2022-08-26T06:42:20.578Z,28.13
2022-08-26T06:45:41.573Z,28.23
2022-08-26T06:49:02.575Z,28.33
2022-08-26T06:52:24.624Z,28.42
2022-08-26T06:55:45.583Z,28.54
2022-08-26T06:59:07.709Z,28.64
2022-08-26T07:02:28.748Z,28.76
2022-08-26T07:05:49.560Z,28.87
2022-08-26T07:09:17.589Z,28.99
2022-08-26T07:12:38.556Z,29.10
2022-08-26T07:16:03.037Z,29.20
2022-08-26T07:19:30.316Z,29.32
2022-08-26T07:22:51.597Z,29.44
2022-08-26T07:26:12.593Z,29.52
2022-08-26T07:29:54.587Z,29.57
2022-08-26T07:33:15.599Z,29.63
2022-08-26T07:36:37.598Z,29.71
2022-08-26T07:39:58.687Z,29.75
2022-08-26T07:43:22.605Z,29.77
2022-08-26T07:46:44.594Z,29.88
2022-08-26T07:50:13.591Z,29.95
2022-08-26T07:53:35.616Z,29.98
2022-08-26T07:56:56.617Z,30.08
2022-08-26T08:00:20.649Z,30.21
2022-08-26T08:03:41.590Z,30.33
2022-08-26T08:07:02.632Z,30.46
2022-08-26T08:10:25.656Z,30.57
2022-08-26T08:13:47.607Z,30.67
2022-08-26T08:17:09.718Z,30.74
2022-08-26T08:20:30.621Z,30.79
2022-08-26T08:23:51.637Z,30.85
2022-08-26T08:27:13.640Z,30.91
2022-08-26T08:30:35.630Z,30.98
2022-08-26T08:33:56.601Z,31.05
2022-08-26T08:37:19.587Z,31.04
2022-08-26T08:40:41.610Z,31.07
2022-08-26T08:44:03.598Z,31.12
2022-08-26T08:48:00.614Z,31.22
2022-08-26T08:51:52.636Z,31.30
2022-08-26T08:55:18.128Z,31.34
2022-08-26T08:59:03.629Z,31.36
2022-08-26T09:02:56.604Z,31.26
2022-08-26T09:06:25.630Z,31.25
2022-08-26T09:09:53.610Z,31.26
2022-08-26T09:13:19.600Z,31.33
2022-08-26T09:17:00.692Z,31.36
2022-08-26T09:20:46.638Z,31.44
2022-08-26T09:24:11.064Z,31.57
2022-08-26T09:27:53.621Z,31.61
2022-08-26T09:31:42.630Z,31.73
2022-08-26T09:35:13.616Z,31.81
2022-08-26T09:38:40.628Z,31.85
2022-08-26T09:42:34.635Z,31.97
2022-08-26T09:46:02.707Z,32.14
2022-08-26T09:49:38.754Z,32.27
2022-08-26T09:52:59.628Z,32.38
2022-08-26T09:56:59.652Z,32.53
2022-08-26T10:00:38.718Z,32.67
2022-08-26T10:03:59.822Z,32.78
2022-08-26T10:07:20.640Z,32.88
2022-08-26T10:10:53.154Z,32.98
2022-08-26T10:14:23.684Z,33.00
2022-08-26T10:17:49.850Z,33.02
2022-08-26T10:21:31.691Z,33.20
2022-08-26T10:24:58.646Z,33.36
2022-08-26T10:28:35.660Z,33.43
2022-08-26T10:32:09.685Z,33.67
2022-08-26T10:35:34.668Z,33.99
2022-08-26T10:38:55.692Z,34.18
2022-08-26T10:42:21.706Z,34.25
2022-08-26T10:45:45.712Z,34.08
2022-08-26T10:49:15.685Z,33.89
2022-08-26T10:52:57.665Z,33.83
2022-08-26T10:56:20.663Z,33.81
2022-08-26T10:59:57.660Z,33.76
2022-08-26T11:03:39.675Z,33.72
2022-08-26T11:07:00.657Z,33.88
2022-08-26T11:10:25.717Z,34.12
2022-08-26T11:14:12.698Z,34.27
2022-08-26T11:18:00.168Z,34.27
2022-08-26T11:22:00.695Z,34.30
2022-08-26T11:25:29.712Z,34.34
2022-08-26T11:29:00.666Z,34.37
2022-08-26T11:32:48.718Z,34.44
2022-08-26T11:36:12.401Z,34.60
2022-08-26T11:39:43.269Z,34.78
2022-08-26T11:43:11.670Z,35.03
2022-08-26T11:46:37.662Z,35.11
2022-08-26T11:50:08.105Z,35.17
2022-08-26T11:53:32.684Z,35.27
2022-08-26T11:56:55.685Z,35.38
2022-08-26T12:00:22.262Z,35.29
2022-08-26T12:03:52.832Z,35.03
2022-08-26T12:07:15.676Z,34.84
2022-08-26T12:10:44.671Z,35.00
2022-08-26T12:14:15.760Z,35.32
2022-08-26T12:17:40.851Z,35.57
2022-08-26T12:21:02.690Z,35.47
2022-08-26T12:24:23.681Z,35.26
2022-08-26T12:27:53.754Z,34.91
2022-08-26T12:31:19.716Z,34.41
2022-08-26T12:34:40.753Z,34.11
2022-08-26T12:38:04.721Z,33.98
2022-08-26T12:41:25.775Z,34.05
2022-08-26T12:44:53.388Z,34.45
2022-08-26T12:48:21.759Z,36.16
2022-08-26T12:51:48.785Z,37.83
2022-08-26T12:55:14.727Z,39.09
2022-08-26T12:58:39.754Z,40.10
2022-08-26T13:02:00.796Z,41.01
2022-08-26T13:05:21.747Z,41.50
2022-08-26T13:08:43.734Z,42.06
2022-08-26T13:12:04.752Z,42.42
2022-08-26T13:15:25.737Z,42.61
2022-08-26T13:18:46.783Z,43.06
2022-08-26T13:22:11.756Z,43.50
2022-08-26T13:25:32.745Z,43.33
2022-08-26T13:29:01.464Z,42.89
2022-08-26T13:32:27.528Z,43.31
2022-08-26T13:35:41.746Z,43.77
2022-08-26T13:39:02.737Z,44.51
2022-08-26T13:42:23.739Z,45.15
2022-08-26T13:45:37.740Z,45.32
2022-08-26T13:48:59.780Z,45.32
2022-08-26T13:52:30.168Z,45.10
2022-08-26T13:55:51.749Z,44.80
2022-08-26T13:59:13.783Z,44.41
2022-08-26T14:02:34.733Z,44.25
2022-08-26T14:05:55.750Z,44.24
2022-08-26T14:09:16.733Z,44.33
2022-08-26T14:12:37.756Z,44.29
2022-08-26T14:15:58.807Z,43.96
2022-08-26T14:19:21.755Z,43.69
2022-08-26T14:23:03.577Z,43.65
2022-08-26T14:26:29.164Z,43.34
2022-08-26T14:29:50.755Z,41.39
2022-08-26T14:33:12.755Z,40.18
2022-08-26T14:36:38.787Z,39.42
2022-08-26T14:39:59.770Z,37.88
2022-08-26T14:43:22.753Z,36.53
2022-08-26T14:46:46.868Z,36.29
2022-08-26T14:50:07.760Z,37.32
2022-08-26T14:53:46.746Z,38.57
2022-08-26T14:57:17.764Z,39.46
2022-08-26T15:00:38.759Z,39.94
2022-08-26T15:03:59.783Z,40.23
2022-08-26T15:07:21.771Z,40.28
2022-08-26T15:10:42.763Z,40.32
2022-08-26T15:14:03.784Z,40.27
2022-08-26T15:17:24.802Z,40.03
2022-08-26T15:20:45.745Z,39.70
2022-08-26T15:24:07.774Z,39.30
2022-08-26T15:27:28.779Z,38.56
2022-08-26T15:30:49.904Z,37.40
2022-08-26T15:34:16.029Z,36.31
2022-08-26T15:37:37.846Z,36.18
2022-08-26T15:41:02.473Z,36.41
2022-08-26T15:44:23.776Z,35.83
2022-08-26T15:47:44.787Z,34.85
2022-08-26T15:51:45.250Z,33.96
2022-08-26T15:55:06.785Z,33.37
2022-08-26T15:58:30.763Z,32.88
2022-08-26T16:01:51.864Z,32.51
2022-08-26T16:05:12.794Z,32.19
2022-08-26T16:08:36.442Z,31.90
2022-08-26T16:11:57.809Z,31.62
2022-08-26T16:15:19.833Z,31.36
2022-08-26T16:18:41.781Z,31.10
2022-08-26T16:22:02.798Z,30.84
2022-08-26T16:25:24.805Z,30.62
2022-08-26T16:28:45.792Z,30.39
2022-08-26T16:32:06.803Z,30.17
2022-08-26T16:35:28.797Z,29.95
2022-08-26T16:38:50.823Z,29.80
2022-08-26T16:42:11.789Z,29.60
2022-08-26T16:45:32.778Z,29.44
2022-08-26T16:48:53.810Z,29.27
2022-08-26T16:52:14.815Z,29.09
2022-08-26T16:55:36.799Z,28.90
2022-08-26T16:58:57.828Z,28.74
2022-08-26T17:02:18.837Z,28.58
2022-08-26T17:05:40.821Z,28.42
2022-08-26T17:09:01.847Z,28.27
2022-08-26T17:12:22.813Z,28.13
2022-08-26T17:15:43.886Z,28.00
2022-08-26T17:19:04.822Z,27.86
2022-08-26T17:22:25.799Z,27.72
2022-08-26T17:25:46.819Z,27.59
2022-08-26T17:29:08.776Z,27.47
2022-08-26T17:32:29.774Z,27.38
2022-08-26T17:35:50.769Z,27.33
2022-08-26T17:39:11.790Z,27.26
2022-08-26T17:42:32.763Z,27.23
2022-08-26T17:45:54.813Z,27.24
2022-08-26T17:49:18.759Z,27.26
2022-08-26T17:52:39.761Z,27.25
2022-08-26T17:56:03.758Z,27.23
2022-08-26T17:59:24.766Z,27.21
2022-08-26T18:02:51.771Z,27.20
2022-08-26T18:06:12.819Z,27.15
2022-08-26T18:09:33.771Z,27.08
2022-08-26T18:12:54.814Z,26.95
2022-08-26T18:16:19.826Z,26.81
2022-08-26T18:19:40.786Z,26.68
2022-08-26T18:23:01.795Z,26.55
2022-08-26T18:26:22.805Z,26.47
2022-08-26T18:29:45.347Z,26.39
2022-08-26T18:33:06.844Z,26.28
2022-08-26T18:36:29.765Z,26.17
2022-08-26T18:39:50.857Z,26.10
2022-08-26T18:43:12.781Z,25.99
2022-08-26T18:46:36.907Z,25.91
2022-08-26T18:49:57.794Z,25.83
2022-08-26T18:53:18.796Z,25.73
2022-08-26T18:56:40.789Z,25.66
2022-08-26T18:59:54.782Z,25.61
2022-08-26T19:03:18.762Z,25.55
2022-08-26T19:06:41.802Z,25.49
2022-08-26T19:10:05.325Z,25.45
2022-08-26T19:13:25.787Z,25.40
2022-08-26T19:16:47.904Z,25.35
2022-08-26T19:20:09.830Z,25.27
2022-08-26T19:23:32.658Z,25.20
2022-08-26T19:26:57.659Z,25.16
2022-08-26T19:30:20.816Z,25.11
2022-08-26T19:33:41.810Z,25.07
2022-08-26T19:37:03.850Z,25.03
2022-08-26T19:40:24.904Z,24.99
2022-08-26T19:43:46.264Z,24.95
2022-08-26T19:47:07.846Z,24.89
2022-08-26T19:50:29.816Z,24.86
2022-08-26T19:53:50.832Z,24.85
2022-08-26T19:57:11.826Z,24.82
2022-08-26T20:00:38.805Z,24.76
2022-08-26T20:03:59.811Z,24.72
2022-08-26T20:07:21.812Z,24.67
2022-08-26T20:10:42.821Z,24.61
2022-08-26T20:14:04.793Z,24.56
2022-08-26T20:17:26.813Z,24.51
2022-08-26T20:21:05.890Z,24.42
2022-08-26T20:24:33.923Z,24.39
2022-08-26T20:27:54.886Z,24.33
2022-08-26T20:31:15.866Z,24.26
2022-08-26T20:34:36.869Z,24.22
2022-08-26T20:37:57.886Z,24.16
2022-08-26T20:41:18.936Z,24.11
2022-08-26T20:44:39.873Z,24.09
2022-08-26T20:48:07.897Z,24.07
2022-08-26T20:51:32.899Z,24.06
2022-08-26T20:54:53.889Z,24.04
2022-08-26T20:58:14.881Z,24.06
2022-08-26T21:01:42.300Z,24.09
2022-08-26T21:05:03.948Z,24.06
2022-08-26T21:08:24.899Z,23.99
2022-08-26T21:11:46.865Z,23.90
2022-08-26T21:15:07.921Z,23.83
2022-08-26T21:18:28.887Z,23.77
2022-08-26T21:21:49.891Z,23.71
2022-08-26T21:25:10.877Z,23.64
2022-08-26T21:28:32.890Z,23.63
2022-08-26T21:31:47.101Z,23.58
2022-08-26T21:35:09.885Z,23.56
2022-08-26T21:38:30.907Z,23.53
2022-08-26T21:41:52.889Z,23.48
2022-08-26T21:45:32.937Z,23.46
2022-08-26T21:49:02.920Z,23.41
2022-08-26T21:52:24.907Z,23.38
2022-08-26T21:55:48.894Z,23.32
2022-08-26T21:59:09.916Z,23.29
2022-08-26T22:02:38.963Z,23.25
2022-08-26T22:06:00.912Z,23.21
2022-08-26T22:09:21.884Z,23.17
2022-08-26T22:12:42.948Z,23.13
2022-08-26T22:16:03.963Z,23.11
2022-08-26T22:19:24.925Z,23.09
2022-08-26T22:22:38.900Z,23.04
2022-08-26T22:25:59.907Z,23.02
2022-08-26T22:29:20.905Z,23.00
2022-08-26T22:32:41.937Z,22.99
2022-08-26T22:36:04.902Z,23.00
2022-08-26T22:39:26.922Z,22.99
2022-08-26T22:42:55.601Z,23.02
2022-08-26T22:46:19.921Z,23.05
2022-08-26T22:49:40.908Z,23.07
2022-08-26T22:53:01.912Z,23.11
2022-08-26T22:56:24.909Z,23.15
2022-08-26T22:59:45.904Z,23.14
2022-08-26T23:03:07.039Z,23.12
2022-08-26T23:06:27.950Z,23.13
2022-08-26T23:09:48.942Z,23.12
2022-08-26T23:13:10.933Z,23.08
2022-08-26T23:16:53.992Z,23.00
2022-08-26T23:20:17.929Z,22.89
2022-08-26T23:23:38.942Z,22.80
2022-08-26T23:26:59.950Z,22.72
2022-08-26T23:30:24.950Z,22.65
2022-08-26T23:34:03.961Z,22.59
2022-08-26T23:37:26.464Z,22.53
2022-08-26T23:40:48.945Z,22.49
2022-08-26T23:44:11.956Z,22.41
2022-08-26T23:47:32.937Z,22.36
2022-08-26T23:51:11.950Z,22.29
2022-08-26T23:54:25.951Z,22.24
2022-08-26T23:57:47.952Z,22.17
